Airfield :
LOGIN :

Register | Disclaimer

   EN    FR    IT 

 










Legend :    VFR   Marginal VFR   IFR   Intensive IFR   Very Intensive IFR
Visi :
Ceiling :
>= 8 km
>= 3000ft
5 to 8 km
1000 to 3000 ft
1500m to 5 km
500 to 1000 ft
800 to 1500m
200 to 500 ft
< 800m
< 200 ft
Symbols :   Thunderstorms  Fog  Heavy snow  Heavy precipitations  Wind > 20 kt
SIGMETs :     Misc.  Thunderstorms  Icing  Turbulence  Mountain Waves  Volcanic Ashes







- Airport Elevation : 24 ft
- IATA code : SGD


EKSB - Sonderborg

CURRENT METAR :
  • 201421Z 04007KT 9999 FEW025 21/13 Q1006

EXPIRED METARs :
  • 201350Z 04006KT 9999 FEW025 21/14 Q1007
  • 201250Z 04006KT 9999 FEW025 21/14 Q1007
  • 201221Z 04005KT 9999 SCT025 21/15 Q1007
  • 201150Z 03003KT 9999 SCT022 20/15 Q1007

TAF TAF EKSB
Valid from the 20 at 12:00 until the 20 at 21:00 UTC


201153Z 2012/2021 03006KT 9999 SCT025
TEMPO 2012/2018 FEW020CB
No reported NOTAMs for that airfield.



MET'MAP, your aeronautical weather chart ! - Copyright ORBIFLY December 2007 - Disclaimer

ORBIFLY MET'MAP TEAM :

Programming & Development : Alexandra Zaïnal
Concept & Development : Baudouin d'Aumeries
Co-Development & Prog : Marc-Olivier Méhu
Technical & hardware support : Manuel Goepfert

Contact : metmap@orbifly.com




SOURCES & CREDITS :

   NOAA